Time;durP1;ratioP1;P1;durP2;ratioP2;P2;SDS_P1;SDS_P2;PMS_P1;PMS_P2;Temp;Humidity;BMP_temperature;BMP_pressure;BME280_temperature;BME280_humidity;BME280_pressure;Samples;Min_cycle;Max_cycle;Signal;HPM_P1;HPM_P2
2024/04/02 00:02:02;;;;;;;54.40;7.70;;;;;;;14.68;57.89;99940.78;107554;1253;107829;-63
2024/04/02 00:04:30;;;;;;;55.00;8.10;;;;;;;14.67;57.84;99935.35;107502;1255;100523;-63
2024/04/02 00:06:58;;;;;;;47.50;7.90;;;;;;;14.67;57.94;99937.17;107583;1253;100442;-62
2024/04/02 00:09:27;;;;;;;42.80;7.90;;;;;;;14.66;57.97;99932.87;107593;1254;115060;-63
2024/04/02 00:11:55;;;;;;;46.90;6.90;;;;;;;14.66;57.86;99930.41;107543;1254;107896;-63
2024/04/02 00:14:23;;;;;;;43.60;7.00;;;;;;;14.66;57.90;99933.31;107610;1254;108187;-63
2024/04/02 00:16:51;;;;;;;35.90;7.30;;;;;;;14.66;58.07;99926.64;107573;1254;100531;-63
2024/04/02 00:19:19;;;;;;;56.20;7.90;;;;;;;14.66;57.92;99924.95;107636;1254;100440;-63
2024/04/02 00:21:47;;;;;;;50.80;7.10;;;;;;;14.66;57.89;99924.65;107477;1254;115531;-63
2024/04/02 00:24:21;;;;;;;45.00;7.40;;;;;;;14.64;57.92;99929.39;107542;1254;107926;-63
2024/04/02 00:26:49;;;;;;;;;;;;;;;14.63;58.00;99928.04;107591;1255;107656;-63
2024/04/02 00:29:18;;;;;;;44.70;7.90;;;;;;;14.60;58.05;99924.80;107562;1253;100535;-63
2024/04/02 00:31:46;;;;;;;56.90;8.10;;;;;;;14.58;58.16;99922.27;107603;1256;100536;-62
2024/04/02 00:34:14;;;;;;;51.00;9.40;;;;;;;14.54;57.99;99920.58;107601;1254;114549;-62
2024/04/02 00:36:43;;;;;;;55.50;8.20;;;;;;;14.50;58.13;99924.30;107559;1254;108289;-63
2024/04/02 00:39:11;;;;;;;57.40;7.80;;;;;;;14.48;58.26;99925.27;107538;1252;108237;-63
2024/04/02 00:41:39;;;;;;;44.40;7.20;;;;;;;14.45;58.44;99925.64;107603;1253;100530;-63
2024/04/02 00:44:07;;;;;;;57.70;8.40;;;;;;;14.43;58.41;99929.51;107548;1253;100407;-63
2024/04/02 00:46:36;;;;;;;43.20;7.20;;;;;;;14.39;58.46;99926.29;107536;1254;113689;-63
2024/04/02 00:49:04;;;;;;;31.50;7.00;;;;;;;14.37;58.49;99919.52;107553;1254;108815;-63
2024/04/02 00:51:32;;;;;;;38.10;7.80;;;;;;;14.35;58.47;99915.85;107607;1254;108811;-63
2024/04/02 00:54:00;;;;;;;37.20;7.00;;;;;;;14.32;58.53;99915.25;107510;1254;100561;-65
2024/04/02 00:56:29;;;;;;;36.80;6.50;;;;;;;14.28;58.50;99911.00;107608;1253;101180;-63
2024/04/02 00:58:58;;;;;;;49.80;8.10;;;;;;;14.24;58.52;99906.23;107590;1254;113873;-62
2024/04/02 01:01:26;;;;;;;52.70;9.10;;;;;;;14.21;58.49;99907.38;107627;1254;107340;-63
2024/04/02 01:03:54;;;;;;;51.60;10.60;;;;;;;14.17;58.71;99912.13;107513;1253;108337;-62
2024/04/02 01:06:22;;;;;;;52.80;8.30;;;;;;;14.15;59.23;99913.50;107501;1251;100564;-63
2024/04/02 01:08:50;;;;;;;48.20;8.20;;;;;;;14.14;59.30;99913.67;107478;1251;100402;-64
2024/04/02 01:11:18;;;;;;;48.00;8.20;;;;;;;14.11;59.31;99915.06;107476;1254;113474;-63
2024/04/02 01:13:47;;;;;;;39.50;7.40;;;;;;;14.06;59.43;99908.73;107503;1253;108066;-63
2024/04/02 01:16:17;;;;;;;42.50;7.30;;;;;;;14.00;59.70;99905.52;107507;1253;108436;-63
2024/04/02 01:18:48;;;;;;;49.70;8.90;;;;;;;13.94;59.62;99901.48;107513;1253;100703;-63
2024/04/02 01:21:20;;;;;;;32.20;6.50;;;;;;;13.91;59.72;99895.67;107563;1252;101189;-63
2024/04/02 01:23:48;;;;;;;46.90;7.10;;;;;;;13.87;59.87;99892.34;107551;1253;113147;-63
2024/04/02 01:26:16;;;;;;;36.80;7.80;;;;;;;13.81;59.88;99887.21;107626;1254;106725;-63
2024/04/02 01:28:44;;;;;;;40.10;7.40;;;;;;;13.76;60.01;99887.51;107511;1252;108140;-63
2024/04/02 01:31:12;;;;;;;47.00;7.90;;;;;;;13.71;59.95;99886.19;107523;1254;100536;-63
2024/04/02 01:33:41;;;;;;;46.90;8.50;;;;;;;13.65;60.04;99880.96;107475;1254;100533;-64
2024/04/02 01:36:09;;;;;;;40.30;7.10;;;;;;;13.59;60.08;99879.54;107521;1253;114105;-63
2024/04/02 01:38:38;;;;;;;60.90;8.00;;;;;;;13.55;60.18;99875.55;107496;1254;107315;-64
2024/04/02 01:41:07;;;;;;;52.30;7.10;;;;;;;13.48;60.22;99874.70;107487;1254;107842;-64
2024/04/02 01:43:35;;;;;;;53.00;8.50;;;;;;;13.43;60.39;99864.50;107544;1254;100576;-63
2024/04/02 01:46:03;;;;;;;54.70;8.40;;;;;;;13.38;60.56;99855.12;107565;1253;100449;-63
2024/04/02 01:48:31;;;;;;;45.90;8.90;;;;;;;13.35;60.86;99857.16;107607;1254;112667;-64
2024/04/02 01:51:00;;;;;;;34.00;7.50;;;;;;;13.31;61.04;99850.31;107608;1250;108577;-62
2024/04/02 01:53:28;;;;;;;38.80;9.30;;;;;;;13.28;61.03;99848.30;107539;1251;107626;-62
2024/04/02 01:55:56;;;;;;;59.60;7.60;;;;;;;13.25;61.18;99841.06;107550;1251;101158;-63
2024/04/02 01:58:24;;;;;;;44.00;6.40;;;;;;;13.22;61.64;99836.38;107580;1251;100520;-62
2024/04/02 02:00:52;;;;;;;52.60;9.90;;;;;;;13.16;61.42;99833.71;107547;1251;114147;-62
2024/04/02 02:03:21;;;;;;;46.50;8.40;;;;;;;13.10;61.39;99828.08;107550;1251;109330;-62
2024/04/02 02:05:49;;;;;;;35.60;7.00;;;;;;;13.04;61.60;99829.45;107491;1250;108047;-63
2024/04/02 02:08:17;;;;;;;35.00;6.60;;;;;;;13.01;61.66;99821.73;107540;1251;100500;-62
2024/04/02 02:10:45;;;;;;;36.40;6.70;;;;;;;12.98;61.89;99819.86;107590;1251;100666;-63
2024/04/02 02:13:14;;;;;;;33.40;6.70;;;;;;;12.96;61.91;99818.69;107514;1253;114880;-63
2024/04/02 02:15:42;;;;;;;34.70;6.80;;;;;;;12.93;61.88;99813.64;107599;1255;107971;-63
2024/04/02 02:18:10;;;;;;;46.10;7.50;;;;;;;12.90;61.86;99814.39;107592;1251;107636;-63
2024/04/02 02:20:39;;;;;;;45.60;8.10;;;;;;;12.85;62.03;99809.65;107571;1250;100625;-63
2024/04/02 02:23:07;;;;;;;58.10;7.90;;;;;;;12.81;61.96;99815.30;107699;1251;100563;-64
2024/04/02 02:25:35;;;;;;;46.90;7.50;;;;;;;12.77;62.19;99812.21;107551;1251;114214;-63
2024/04/02 02:28:04;;;;;;;54.90;8.00;;;;;;;12.73;62.30;99810.23;107573;1251;108420;-63
2024/04/02 02:30:32;;;;;;;46.80;8.30;;;;;;;12.71;62.22;99811.55;107745;1251;106129;-63
2024/04/02 02:33:00;;;;;;;51.40;8.80;;;;;;;12.67;62.29;99813.87;107569;1251;100538;-63
2024/04/02 02:35:29;;;;;;;54.60;8.30;;;;;;;12.62;62.25;99810.06;107535;1251;101051;-62
2024/04/02 02:37:58;;;;;;;43.40;8.10;;;;;;;12.58;62.46;99810.92;107601;1254;114844;-62
2024/04/02 02:40:29;;;;;;;45.50;8.50;;;;;;;12.54;62.43;99811.30;107680;1251;107935;-64
2024/04/02 02:42:58;;;;;;;40.60;8.60;;;;;;;12.51;62.54;99812.02;107534;1252;108930;-64
2024/04/02 02:45:26;;;;;;;47.00;8.10;;;;;;;12.48;62.69;99812.66;107588;1254;100700;-62
2024/04/02 02:47:54;;;;;;;47.10;8.60;;;;;;;12.45;62.85;99812.88;107637;1253;101090;-63
2024/04/02 02:50:22;;;;;;;41.00;8.10;;;;;;;12.41;62.97;99809.41;107572;1253;113776;-65
2024/04/02 02:52:51;;;;;;;45.80;7.90;;;;;;;12.38;63.08;99802.47;107511;1253;108509;-64
2024/04/02 02:55:19;;;;;;;47.10;8.20;;;;;;;12.35;63.15;99794.22;107542;1254;108220;-65
2024/04/02 02:57:47;;;;;;;52.50;7.40;;;;;;;12.32;63.35;99788.05;107538;1255;100531;-62
2024/04/02 03:00:16;;;;;;;44.30;8.20;;;;;;;12.30;63.42;99786.64;107531;1252;100427;-63
2024/04/02 03:02:44;;;;;;;39.90;7.10;;;;;;;12.25;63.47;99781.66;107569;1254;113740;-63
2024/04/02 03:05:13;;;;;;;36.80;6.80;;;;;;;12.20;63.52;99777.88;107707;1251;108290;-62
2024/04/02 03:07:41;;;;;;;43.60;7.50;;;;;;;12.18;63.64;99778.85;107584;1251;107785;-62
2024/04/02 03:10:10;;;;;;;52.50;7.30;;;;;;;12.15;63.60;99776.13;107440;1254;100530;-62
2024/04/02 03:12:38;;;;;;;45.80;8.50;;;;;;;12.13;63.74;99772.78;107513;1252;100315;-63
2024/04/02 03:15:06;;;;;;;60.50;9.70;;;;;;;12.08;63.74;99772.59;107536;1253;114443;-63
2024/04/02 03:17:34;;;;;;;51.00;7.90;;;;;;;12.03;63.78;99772.88;107573;1254;107532;-64
2024/04/02 03:20:04;;;;;;;57.60;9.80;;;;;;;12.00;63.73;99772.33;107600;1254;107894;-62
2024/04/02 03:22:32;;;;;;;46.90;7.40;;;;;;;11.98;63.86;99766.84;107514;1254;100584;-64
2024/04/02 03:25:00;;;;;;;36.10;7.30;;;;;;;11.97;64.04;99763.18;107543;1254;100421;-63
2024/04/02 03:27:28;;;;;;;40.50;7.20;;;;;;;11.96;64.12;99755.67;107578;1254;114733;-63
2024/04/02 03:29:57;;;;;;;39.10;7.30;;;;;;;11.94;64.26;99741.55;107560;1254;107050;-62
2024/04/02 03:32:25;;;;;;;48.10;8.10;;;;;;;11.92;64.58;99740.31;107503;1252;108249;-63
2024/04/02 03:34:53;;;;;;;71.50;8.60;;;;;;;11.92;64.56;99737.52;107519;1253;100667;-63
2024/04/02 03:37:21;;;;;;;40.10;8.00;;;;;;;11.90;64.71;99736.60;107506;1254;100549;-63
2024/04/02 03:39:49;;;;;;;47.60;8.60;;;;;;;11.89;64.75;99737.17;107584;1253;114441;-63
2024/04/02 03:42:17;;;;;;;55.30;8.90;;;;;;;11.87;64.69;99737.08;107540;1254;108521;-63
2024/04/02 03:44:46;;;;;;;40.90;7.90;;;;;;;11.84;64.63;99733.14;107545;1254;108115;-63
2024/04/02 03:47:14;;;;;;;67.70;15.90;;;;;;;11.80;64.95;99730.11;107479;1252;100636;-63
2024/04/02 03:49:45;;;;;;;52.90;9.80;;;;;;;11.80;65.14;99729.23;107553;1256;101770;-64
2024/04/02 03:52:13;;;;;;;47.20;9.00;;;;;;;11.80;65.63;99730.34;107580;1251;115008;-63
2024/04/02 03:54:41;;;;;;;68.60;18.00;;;;;;;11.77;65.79;99727.63;107562;1254;108338;-63
2024/04/02 03:57:09;;;;;;;50.70;10.00;;;;;;;11.76;65.99;99727.55;107602;1253;107122;-63
2024/04/02 03:59:37;;;;;;;74.40;17.60;;;;;;;11.72;65.93;99729.35;107603;1256;100619;-64
2024/04/02 04:02:05;;;;;;;102.90;29.80;;;;;;;11.71;65.86;99733.92;107546;1254;101086;-64
2024/04/02 04:04:34;;;;;;;82.70;23.20;;;;;;;11.71;65.94;99731.70;107598;1253;114222;-62
2024/04/02 04:07:03;;;;;;;64.90;11.80;;;;;;;11.70;66.57;99730.65;107638;1252;107228;-62
2024/04/02 04:09:31;;;;;;;100.10;31.40;;;;;;;11.69;66.31;99725.08;107542;1251;108430;-63
2024/04/02 04:11:59;;;;;;;73.40;12.00;;;;;;;11.70;66.58;99725.83;107509;1256;100604;-63
2024/04/02 04:14:27;;;;;;;48.50;7.20;;;;;;;11.70;67.05;99721.56;107573;1253;100385;-63
2024/04/02 04:16:55;;;;;;;58.30;7.20;;;;;;;11.67;67.19;99717.70;107534;1252;113543;-63
2024/04/02 04:19:23;;;;;;;79.20;13.50;;;;;;;11.66;66.77;99717.90;107531;1255;108654;-62
2024/04/02 04:21:51;;;;;;;60.30;13.00;;;;;;;11.67;66.77;99714.48;107528;1253;108216;-63
2024/04/02 04:24:22;;;;;;;50.80;10.60;;;;;;;11.71;66.95;99713.15;107527;1252;100525;-63
2024/04/02 04:26:51;;;;;;;73.70;11.60;;;;;;;11.76;66.76;99709.40;107628;1254;100538;-62
2024/04/02 04:29:19;;;;;;;52.60;8.40;;;;;;;11.80;66.92;99705.59;107531;1252;114015;-63
2024/04/02 04:31:47;;;;;;;51.50;9.10;;;;;;;11.83;67.01;99695.48;107542;1253;108413;-63
2024/04/02 04:34:16;;;;;;;56.90;9.80;;;;;;;11.86;66.80;99685.51;107565;1253;108197;-63
2024/04/02 04:36:44;;;;;;;83.80;13.50;;;;;;;11.88;66.93;99683.20;107502;1253;100620;-63
2024/04/02 04:39:12;;;;;;;69.80;15.10;;;;;;;11.94;67.03;99678.31;107519;1252;101084;-64
2024/04/02 04:41:40;;;;;;;62.10;9.10;;;;;;;11.99;67.05;99674.52;107516;1252;113467;-64
2024/04/02 04:44:08;;;;;;;56.10;10.90;;;;;;;12.04;67.12;99673.02;107395;1254;106986;-62
2024/04/02 04:46:37;;;;;;;67.40;10.50;;;;;;;12.11;67.15;99671.23;107594;1253;108210;-63
2024/04/02 04:49:06;;;;;;;72.00;10.70;;;;;;;12.16;67.02;99664.84;107580;1253;100616;-64
2024/04/02 04:51:34;;;;;;;81.70;11.40;;;;;;;12.21;66.86;99662.33;107484;1254;101305;-63
2024/04/02 04:54:03;;;;;;;85.40;9.90;;;;;;;12.27;66.90;99657.78;107531;1251;113599;-63
2024/04/02 04:56:31;;;;;;;65.90;12.10;;;;;;;12.31;66.81;99655.85;107525;1251;108648;-63
2024/04/02 04:58:59;;;;;;;67.00;10.10;;;;;;;12.37;66.74;99655.21;107544;1252;108238;-64
2024/04/02 05:01:27;;;;;;;59.70;7.60;;;;;;;12.42;66.64;99654.77;107471;1251;100525;-63
2024/04/02 05:03:55;;;;;;;86.30;11.30;;;;;;;12.48;66.71;99647.65;107540;1256;101099;-63
2024/04/02 05:06:24;;;;;;;83.10;10.40;;;;;;;12.54;66.65;99635.85;107519;1251;114874;-63
2024/04/02 05:08:52;;;;;;;82.20;11.50;;;;;;;12.60;66.73;99633.61;107515;1254;108344;-63
2024/04/02 05:11:21;;;;;;;82.40;8.90;;;;;;;12.67;66.64;99630.10;107573;1253;108569;-63
2024/04/02 05:13:50;;;;;;;80.70;9.90;;;;;;;12.77;66.59;99626.38;107469;1250;100622;-63
2024/04/02 05:16:18;;;;;;;91.10;11.30;;;;;;;12.85;66.51;99622.64;107447;1251;100492;-62
2024/04/02 05:18:46;;;;;;;87.00;11.20;;;;;;;12.95;66.42;99617.23;107560;1251;114496;-62
2024/04/02 05:21:14;;;;;;;75.60;9.30;;;;;;;13.05;66.52;99606.20;107508;1251;108624;-63
2024/04/02 05:23:42;;;;;;;87.40;10.80;;;;;;;13.13;66.49;99600.52;107490;1252;107484;-63
2024/04/02 05:26:10;;;;;;;102.00;10.10;;;;;;;13.25;66.54;99598.48;107490;1254;100661;-62
2024/04/02 05:28:40;;;;;;;87.70;10.30;;;;;;;13.34;66.50;99594.34;107565;1251;100440;-63
2024/04/02 05:31:09;;;;;;;89.50;18.60;;;;;;;13.45;66.32;99593.22;107459;1251;113911;-63
2024/04/02 05:33:38;;;;;;;65.30;10.70;;;;;;;13.58;66.14;99580.09;107474;1254;108031;-63
2024/04/02 05:36:07;;;;;;;75.30;11.80;;;;;;;13.73;65.93;99581.04;107550;1252;107454;-63
2024/04/02 05:38:35;;;;;;;85.90;10.70;;;;;;;13.85;65.72;99579.42;107575;1255;100645;-63
2024/04/02 05:41:03;;;;;;;98.10;11.70;;;;;;;13.98;65.38;99574.09;107529;1251;100444;-63
2024/04/02 05:43:31;;;;;;;101.10;12.70;;;;;;;14.09;65.13;99572.29;107420;1254;113731;-63
2024/04/02 05:45:59;;;;;;;74.90;12.20;;;;;;;14.23;64.97;99566.32;107519;1251;108552;-63
2024/04/02 05:48:27;;;;;;;112.60;12.60;;;;;;;14.35;64.67;99568.27;107495;1251;107581;-63
2024/04/02 05:50:56;;;;;;;91.40;12.70;;;;;;;14.47;64.42;99565.52;107483;1252;100628;-62
2024/04/02 05:53:24;;;;;;;92.60;13.10;;;;;;;14.58;63.95;99565.60;107520;1254;100440;-63
2024/04/02 05:55:52;;;;;;;54.80;10.20;;;;;;;14.69;63.74;99557.70;107559;1253;113616;-62
2024/04/02 05:58:20;;;;;;;89.00;12.10;;;;;;;14.81;63.54;99551.73;107564;1253;108672;-63
2024/04/02 06:00:48;;;;;;;72.20;10.20;;;;;;;14.95;63.03;99549.86;107549;1254;107538;-62
2024/04/02 06:03:16;;;;;;;68.10;12.20;;;;;;;15.10;62.65;99546.49;107533;1254;100528;-63
2024/04/02 06:05:44;;;;;;;62.20;9.80;;;;;;;15.25;61.81;99542.90;107556;1253;101091;-63
2024/04/02 06:08:14;;;;;;;62.30;10.50;;;;;;;15.43;61.19;99537.27;107534;1256;114394;-62
2024/04/02 06:10:42;;;;;;;67.70;10.60;;;;;;;15.58;60.61;99537.23;107509;1254;108320;-62
2024/04/02 06:13:10;;;;;;;78.10;10.70;;;;;;;15.74;60.23;99531.11;107493;1253;108215;-63
2024/04/02 06:15:39;;;;;;;81.70;10.10;;;;;;;15.88;59.76;99525.91;107520;1253;100641;-63
2024/04/02 06:18:07;;;;;;;72.20;10.80;;;;;;;16.02;59.61;99525.64;107525;1254;100719;-62
2024/04/02 06:20:35;;;;;;;60.40;8.60;;;;;;;16.15;59.18;99522.70;107536;1253;115443;-63
2024/04/02 06:23:04;;;;;;;52.10;8.60;;;;;;;16.25;59.01;99518.33;107485;1254;108332;-63
2024/04/02 06:25:33;;;;;;;63.30;10.80;;;;;;;16.36;58.51;99508.52;107559;1252;108584;-62
2024/04/02 06:28:01;;;;;;;88.10;10.50;;;;;;;16.47;58.18;99503.27;107546;1254;100542;-64
2024/04/02 06:30:29;;;;;;;64.80;9.60;;;;;;;16.59;58.02;99494.25;107534;1254;101192;-63
2024/04/02 06:32:58;;;;;;;60.80;10.50;;;;;;;16.71;58.04;99491.92;107529;1253;114655;-63
2024/04/02 06:35:26;;;;;;;58.30;9.30;;;;;;;16.81;58.02;99487.34;107579;1253;107458;-62
2024/04/02 06:37:54;;;;;;;74.10;11.60;;;;;;;16.91;57.87;99482.92;107528;1254;107836;-62
2024/04/02 06:40:22;;;;;;;71.10;10.90;;;;;;;17.03;57.74;99482.02;107581;1254;100535;-62
2024/04/02 06:42:50;;;;;;;67.90;10.20;;;;;;;17.17;57.55;99469.84;107549;1254;101138;-63
2024/04/02 06:45:18;;;;;;;77.80;11.40;;;;;;;17.31;57.14;99457.05;107452;1252;115900;-62
2024/04/02 06:47:53;;;;;;;69.60;11.50;;;;;;;17.45;56.73;99448.57;107526;1254;108049;-63
2024/04/02 06:50:21;;;;;;;73.40;9.80;;;;;;;17.59;56.15;99445.76;107499;1254;107571;-64
2024/04/02 06:52:50;;;;;;;70.90;11.00;;;;;;;17.75;55.95;99440.92;107548;1254;100743;-63
2024/04/02 06:55:18;;;;;;;72.80;10.50;;;;;;;17.88;55.96;99433.54;107541;1253;100550;-63
2024/04/02 06:57:46;;;;;;;68.10;10.30;;;;;;;18.03;55.85;99429.32;107591;1252;113918;-63
2024/04/02 07:00:16;;;;;;;76.00;10.90;;;;;;;18.15;55.34;99432.99;107547;1254;107721;-64
2024/04/02 07:02:44;;;;;;;67.60;11.20;;;;;;;18.29;55.24;99426.08;107524;1254;107706;-63
2024/04/02 07:05:12;;;;;;;69.10;9.80;;;;;;;18.42;54.95;99416.33;107501;1255;100642;-62
2024/04/02 07:07:40;;;;;;;58.50;11.20;;;;;;;18.53;53.98;99411.41;107419;1253;101077;-64
2024/04/02 07:10:08;;;;;;;64.60;10.00;;;;;;;18.66;53.96;99404.69;107492;1255;114073;-63
2024/04/02 07:12:37;;;;;;;59.70;10.90;;;;;;;18.79;53.78;99401.17;107534;1253;108029;-62
2024/04/02 07:15:05;;;;;;;62.90;10.10;;;;;;;18.90;53.32;99400.98;107413;1254;108736;-62
2024/04/02 07:17:33;;;;;;;72.90;10.40;;;;;;;19.05;53.31;99394.91;107611;1255;101134;-63
2024/04/02 07:20:02;;;;;;;58.80;8.90;;;;;;;19.17;52.83;99386.78;107562;1253;100421;-64
2024/04/02 07:22:30;;;;;;;65.80;10.20;;;;;;;19.28;52.70;99383.16;107507;1253;113394;-63
2024/04/02 07:24:58;;;;;;;68.60;10.90;;;;;;;19.40;52.42;99376.73;107542;1254;108049;-63
2024/04/02 07:27:27;;;;;;;80.70;11.50;;;;;;;19.51;52.06;99371.77;107503;1254;106881;-63
2024/04/02 07:29:55;;;;;;;70.30;11.40;;;;;;;19.64;51.12;99362.16;107539;1252;100552;-63
2024/04/02 07:32:23;;;;;;;83.50;12.20;;;;;;;19.83;50.96;99355.02;107632;1252;101062;-63
2024/04/02 07:34:51;;;;;;;87.40;10.90;;;;;;;20.00;50.92;99353.00;107587;1254;113222;-62
2024/04/02 07:37:19;;;;;;;75.70;11.70;;;;;;;20.16;50.71;99348.55;107532;1254;108500;-63
2024/04/02 07:39:47;;;;;;;94.20;13.20;;;;;;;20.34;50.30;99345.10;107502;1252;107882;-62
2024/04/02 07:42:16;;;;;;;73.00;10.60;;;;;;;20.50;49.88;99341.71;107516;1253;100599;-62
2024/04/02 07:44:44;;;;;;;78.50;11.50;;;;;;;20.62;49.67;99339.91;107565;1253;101048;-62
2024/04/02 07:47:12;;;;;;;66.90;11.70;;;;;;;20.74;49.85;99328.17;107516;1253;114622;-62
2024/04/02 07:49:40;;;;;;;61.70;9.90;;;;;;;20.87;49.47;99314.52;107524;1254;108013;-62
2024/04/02 07:52:09;;;;;;;80.90;10.10;;;;;;;21.00;49.43;99310.11;107566;1253;108110;-63
2024/04/02 07:54:37;;;;;;;78.00;11.40;;;;;;;21.15;48.64;99300.47;107483;1255;100548;-63
2024/04/02 07:57:06;;;;;;;71.70;12.40;;;;;;;21.35;46.77;99287.52;107545;1253;100641;-63
2024/04/02 07:59:35;;;;;;;74.50;11.80;;;;;;;21.57;46.85;99284.12;106797;1252;114948;-62
2024/04/02 08:02:03;;;;;;;60.80;10.60;;;;;;;21.75;45.49;99276.23;107489;1253;100552;-64
2024/04/02 08:04:31;;;;;;;65.80;10.50;;;;;;;21.92;45.76;99281.08;107450;1254;107954;-62
2024/04/02 08:07:01;;;;;;;60.70;10.60;;;;;;;22.06;44.85;99272.59;107561;1252;100438;-61
2024/04/02 08:09:29;;;;;;;62.60;11.20;;;;;;;22.18;44.95;99272.80;107547;1251;101077;-64
2024/04/02 08:11:57;;;;;;;64.70;11.10;;;;;;;22.32;44.59;99280.35;107568;1251;114040;-62
2024/04/02 08:14:31;;;;;;;50.60;9.80;;;;;;;22.45;44.82;99297.45;107572;1254;107522;-62
2024/04/02 08:16:59;;;;;;;86.10;10.90;;;;;;;22.61;44.72;99292.46;107438;1254;108363;-62
2024/04/02 08:19:27;;;;;;;72.10;12.20;;;;;;;22.76;43.99;99292.41;107527;1254;100607;-63
2024/04/02 08:21:56;;;;;;;74.90;10.70;;;;;;;22.93;43.66;99289.21;107558;1254;101173;-63
2024/04/02 08:24:25;;;;;;;79.40;11.60;;;;;;;23.08;43.22;99284.82;107481;1255;113910;-63
2024/04/02 08:26:53;;;;;;;68.10;11.20;;;;;;;23.23;42.29;99280.58;107587;1251;108270;-63
2024/04/02 08:29:22;;;;;;;79.10;11.60;;;;;;;23.39;42.60;99279.44;107565;1251;107604;-62
2024/04/02 08:31:50;;;;;;;60.90;9.60;;;;;;;23.54;42.45;99273.35;107531;1254;100651;-62
2024/04/02 08:34:18;;;;;;;70.70;11.80;;;;;;;23.74;42.35;99268.05;107526;1253;100538;-63
2024/04/02 08:36:46;;;;;;;62.10;10.60;;;;;;;23.93;41.83;99266.95;107526;1254;114393;-63
2024/04/02 08:39:15;;;;;;;78.00;11.00;;;;;;;24.11;41.53;99264.92;107511;1254;108429;-63
2024/04/02 08:41:43;;;;;;;84.50;11.60;;;;;;;24.30;39.17;99267.52;107500;1252;108668;-63
2024/04/02 08:44:11;;;;;;;66.40;11.10;;;;;;;24.48;38.21;99260.66;107468;1254;100565;-62
2024/04/02 08:46:39;;;;;;;63.30;10.00;;;;;;;24.67;39.05;99257.86;107569;1254;101093;-63
2024/04/02 08:49:07;;;;;;;62.60;12.10;;;;;;;24.91;38.77;99255.27;107578;1252;113713;-63
2024/04/02 08:51:36;;;;;;;63.80;8.70;;;;;;;25.16;39.13;99261.77;107466;1252;108210;-63
2024/04/02 08:54:04;;;;;;;88.40;11.90;;;;;;;25.42;38.73;99265.02;107556;1252;107042;-63
2024/04/02 08:56:32;;;;;;;83.00;10.10;;;;;;;25.64;37.24;99270.95;107534;1253;100419;-64
2024/04/02 08:59:03;;;;;;;95.20;12.70;;;;;;;25.90;31.52;99261.73;107567;1254;100425;-63
2024/04/02 09:01:32;;;;;;;83.10;11.90;;;;;;;26.22;30.08;99255.29;107559;1252;114234;-65
2024/04/02 09:04:02;;;;;;;54.70;9.60;;;;;;;26.53;28.21;99256.55;107595;1254;107487;-62
2024/04/02 09:06:30;;;;;;;83.30;10.30;;;;;;;26.87;27.43;99261.77;107592;1250;107242;-63
2024/04/02 09:08:59;;;;;;;76.50;12.20;;;;;;;27.23;26.17;99264.55;107518;1251;100512;-64
2024/04/02 09:11:27;;;;;;;70.20;11.60;;;;;;;27.50;26.28;99255.47;107477;1253;101073;-63
2024/04/02 09:14:00;;;;;;;68.10;11.00;;;;;;;27.80;25.49;99256.42;107607;1254;114510;-64
2024/04/02 09:16:31;;;;;;;;;;;;;;;28.11;24.96;99250.48;107649;1250;108687;-63
2024/04/02 09:18:59;;;;;;;67.10;11.30;;;;;;;28.54;24.70;99254.33;107532;1252;108255;-64
2024/04/02 09:21:28;;;;;;;70.50;11.60;;;;;;;28.98;23.76;99258.16;107543;1254;100575;-64
2024/04/02 09:23:57;;;;;;;68.70;11.80;;;;;;;29.35;22.56;99246.51;107559;1252;100753;-63
2024/04/02 09:26:26;;;;;;;75.30;11.80;;;;;;;29.62;22.84;99251.11;107505;1254;114053;-64
2024/04/02 09:28:54;;;;;;;75.00;10.40;;;;;;;29.70;22.43;99244.21;107555;1251;107478;-65
2024/04/02 09:31:24;;;;;;;74.00;12.00;;;;;;;30.00;21.45;99266.04;107557;1251;107280;-64
2024/04/02 09:33:58;;;;;;;78.40;11.20;;;;;;;30.40;21.07;99259.83;107566;1251;100519;-64
2024/04/02 09:36:46;;;;;;;72.20;12.00;;;;;;;30.92;20.77;99246.98;107588;1251;100427;-65
2024/04/02 09:39:15;;;;;;;79.20;10.70;;;;;;;31.45;20.88;99239.36;107606;1251;115062;-64
2024/04/02 09:41:45;;;;;;;85.30;11.20;;;;;;;31.83;19.20;99245.65;107593;1251;108553;-63
2024/04/02 09:44:32;;;;;;;72.40;12.20;;;;;;;31.99;18.66;99257.20;107577;1251;107757;-65
2024/04/02 09:47:05;;;;;;;79.60;10.10;;;;;;;32.26;18.93;99248.50;107483;1251;100430;-63
2024/04/02 09:49:36;;;;;;;60.60;10.10;;;;;;;32.82;19.10;99254.77;107544;1253;100528;-64
2024/04/02 09:52:06;;;;;;;88.70;11.90;;;;;;;33.53;17.30;99255.70;107608;1254;115095;-64
2024/04/02 09:54:36;;;;;;;80.10;11.80;;;;;;;33.46;16.48;99273.67;107573;1253;108494;-62
2024/04/02 09:57:05;;;;;;;72.90;12.70;;;;;;;32.48;17.72;99308.02;107588;1251;107813;-61
2024/04/02 09:59:33;;;;;;;81.40;12.80;;;;;;;31.32;19.23;99306.42;107535;1251;100558;-63
2024/04/02 10:02:02;;;;;;;91.70;12.50;;;;;;;30.28;20.23;99325.68;107609;1253;100555;-64
2024/04/02 10:04:31;;;;;;;107.80;12.50;;;;;;;29.27;21.14;99338.83;107554;1251;113675;-63
2024/04/02 10:07:00;;;;;;;89.70;10.10;;;;;;;28.68;21.72;99339.96;107578;1251;107649;-63
2024/04/02 10:09:44;;;;;;;92.70;12.20;;;;;;;28.21;22.10;99363.75;107480;1253;108206;-64
2024/04/02 10:12:17;;;;;;;65.10;10.00;;;;;;;27.91;22.51;99362.67;107573;1254;100514;-63
2024/04/02 10:14:48;;;;;;;65.30;10.00;;;;;;;27.71;22.85;99373.73;107596;1255;100648;-64
2024/04/02 10:17:17;;;;;;;70.90;9.60;;;;;;;27.47;23.40;99395.04;107591;1251;114119;-65
2024/04/02 10:19:50;;;;;;;77.70;11.70;;;;;;;27.18;24.05;99416.16;107558;1255;108316;-64
2024/04/02 10:22:36;;;;;;;61.00;10.10;;;;;;;26.78;24.68;99436.96;107513;1254;108487;-64
2024/04/02 10:25:14;;;;;;;78.60;10.40;;;;;;;26.52;25.23;99437.34;107581;1251;100529;-63
2024/04/02 10:27:47;;;;;;;70.10;9.70;;;;;;;26.42;25.47;99457.73;107625;1251;100389;-63
2024/04/02 10:30:17;;;;;;;54.70;7.80;;;;;;;25.76;26.43;99482.75;107557;1251;114153;-64
2024/04/02 10:32:46;;;;;;;52.90;6.20;;;;;;;25.20;27.53;99469.71;107633;1251;108332;-64
2024/04/02 10:35:18;;;;;;;46.60;5.30;;;;;;;24.75;28.38;99485.72;107601;1251;107784;-64
2024/04/02 10:37:57;;;;;;;44.70;4.80;;;;;;;24.41;29.04;99508.75;107566;1251;100535;-64
2024/04/02 10:40:25;;;;;;;57.20;5.80;;;;;;;24.36;28.96;99511.33;107701;1253;100418;-63
2024/04/02 10:42:54;;;;;;;34.50;3.80;;;;;;;24.20;29.36;99513.20;107595;1255;114386;-64
2024/04/02 10:45:23;;;;;;;20.70;4.00;;;;;;;23.77;29.80;99525.50;107539;1252;108343;-66
2024/04/02 10:47:52;;;;;;;18.80;3.30;;;;;;;23.38;30.28;99522.38;107592;1255;108596;-62
2024/04/02 10:50:23;;;;;;;25.00;2.80;;;;;;;22.97;30.25;99542.44;107606;1254;100626;-63
2024/04/02 10:52:54;;;;;;;23.40;2.90;;;;;;;22.59;30.44;99549.19;107646;1251;100487;-64
2024/04/02 10:55:24;;;;;;;20.40;3.10;;;;;;;22.30;30.62;99550.86;107593;1251;114041;-63
2024/04/02 10:57:52;;;;;;;30.60;2.60;;;;;;;22.07;30.87;99566.59;107595;1254;109022;-64
2024/04/02 11:00:21;;;;;;;16.20;2.30;;;;;;;21.91;30.96;99573.44;107536;1251;108891;-64
2024/04/02 11:02:49;;;;;;;12.10;2.10;;;;;;;21.89;31.06;99568.38;107544;1251;100599;-64
2024/04/02 11:05:17;;;;;;;15.10;2.00;;;;;;;21.92;31.17;99561.04;107616;1251;100621;-63
2024/04/02 11:07:47;;;;;;;15.60;2.50;;;;;;;21.96;31.33;99558.54;107550;1251;114570;-64
2024/04/02 11:10:16;;;;;;;18.30;2.80;;;;;;;22.00;31.46;99557.58;107571;1251;108501;-63
2024/04/02 11:12:44;;;;;;;11.50;3.00;;;;;;;22.28;31.27;99545.67;107638;1251;108696;-63
2024/04/02 11:15:13;;;;;;;10.50;2.20;;;;;;;22.73;30.36;99552.34;107545;1256;100624;-62